createdAt,value
2022-10-23T00:02:43.742Z,99671.27
2022-10-23T00:12:17.673Z,99657.25
2022-10-23T00:21:53.475Z,99649.66
2022-10-23T00:31:26.100Z,99646.65
2022-10-23T00:41:01.301Z,99640.40
2022-10-23T00:50:34.733Z,99631.37
2022-10-23T01:00:08.690Z,99610.66
2022-10-23T01:09:44.502Z,99594.02
2022-10-23T01:19:16.954Z,99599.97
2022-10-23T01:28:53.087Z,99608.36
2022-10-23T01:38:25.770Z,99609.83
2022-10-23T01:48:01.582Z,99592.38
2022-10-23T01:57:33.710Z,99584.47
2022-10-23T02:07:09.224Z,99565.29
2022-10-23T02:16:42.386Z,99556.29
2022-10-23T02:26:16.706Z,99549.34
2022-10-23T02:35:51.416Z,99548.88
2022-10-23T02:45:26.696Z,99548.58
2022-10-23T02:54:59.527Z,99556.92
2022-10-23T03:04:35.177Z,99535.68
2022-10-23T03:14:08.914Z,99527.80
2022-10-23T03:23:40.952Z,99517.50
2022-10-23T03:33:16.637Z,99515.07
2022-10-23T03:42:49.303Z,99501.34
2022-10-23T03:52:26.708Z,99505.19
2022-10-23T04:02:03.080Z,99510.30
2022-10-23T04:11:32.913Z,99520.05
2022-10-23T04:21:08.099Z,99515.11
2022-10-23T04:30:40.811Z,99490.41
2022-10-23T04:40:16.433Z,99514.84
2022-10-23T04:49:50.361Z,99501.66
2022-10-23T04:59:23.766Z,99513.13
2022-10-23T05:08:55.075Z,99513.38
2022-10-23T05:18:29.127Z,99490.49
2022-10-23T05:28:03.476Z,99481.61
2022-10-23T05:37:37.671Z,99465.59
2022-10-23T05:47:13.215Z,99472.31
2022-10-23T05:56:47.942Z,99456.30
2022-10-23T06:06:21.616Z,99448.41
2022-10-23T06:15:55.880Z,99449.84
2022-10-23T06:25:28.275Z,99452.75
2022-10-23T06:35:04.321Z,99443.77
2022-10-23T06:44:38.658Z,99447.78
2022-10-23T06:54:11.091Z,99455.22
2022-10-23T07:03:45.668Z,99456.80
2022-10-23T07:13:21.594Z,99461.31
2022-10-23T07:22:54.163Z,99439.36
2022-10-23T07:32:28.677Z,99449.63
2022-10-23T07:42:05.191Z,99433.00
2022-10-23T07:51:38.557Z,99459.30
2022-10-23T07:52:42.878Z,99454.70
2022-10-23T08:02:14.665Z,99452.03
2022-10-23T08:11:49.096Z,99452.02
2022-10-23T08:21:23.558Z,99420.11
2022-10-23T08:30:57.957Z,99410.10
2022-10-23T08:40:32.673Z,99424.20
2022-10-23T08:50:08.438Z,99426.24
2022-10-23T08:59:40.956Z,99426.86
2022-10-23T09:09:15.651Z,99393.37
2022-10-23T09:18:50.279Z,99399.36
2022-10-23T09:19:53.855Z,99399.88
2022-10-23T09:20:56.303Z,99401.17
2022-10-23T09:21:58.725Z,99405.45
2022-10-23T09:23:02.783Z,99411.84
2022-10-23T09:24:05.115Z,99407.38
2022-10-23T09:25:07.614Z,99407.42
2022-10-23T09:26:10.059Z,99400.90
2022-10-23T09:27:12.431Z,99405.77
2022-10-23T09:28:14.878Z,99404.39
2022-10-23T09:29:17.297Z,99405.11
2022-10-23T09:30:22.367Z,99405.11
2022-10-23T09:31:26.210Z,99407.11
2022-10-23T09:32:30.115Z,99409.33
2022-10-23T09:33:32.418Z,99409.61
2022-10-23T09:34:34.890Z,99401.77
2022-10-23T09:35:37.294Z,99393.67
2022-10-23T09:36:39.693Z,99386.32
2022-10-23T09:37:42.500Z,99393.53
2022-10-23T09:38:44.670Z,99386.92
2022-10-23T09:39:47.084Z,99382.45
2022-10-23T09:40:49.596Z,99384.53
2022-10-23T09:41:55.186Z,99389.39
2022-10-23T09:42:55.967Z,99391.59
2022-10-23T09:43:59.986Z,99388.45
2022-10-23T09:45:02.304Z,99385.73
2022-10-23T09:46:05.703Z,99382.06
2022-10-23T09:47:08.113Z,99381.11
2022-10-23T09:48:10.582Z,99378.63
2022-10-23T09:49:15.610Z,99380.64
2022-10-23T09:50:19.515Z,99388.45
2022-10-23T09:51:21.795Z,99388.61
2022-10-23T10:00:55.353Z,99361.56
2022-10-23T10:01:56.419Z,99359.93
2022-10-23T10:02:58.776Z,99357.06
2022-10-23T10:04:01.212Z,99354.91
2022-10-23T10:05:03.715Z,99360.04
2022-10-23T10:06:07.747Z,99368.83
2022-10-23T10:07:10.074Z,99365.80
2022-10-23T10:08:12.516Z,99368.38
2022-10-23T10:09:16.535Z,99376.83
2022-10-23T10:10:18.842Z,99375.39
2022-10-23T10:11:22.884Z,99369.66
2022-10-23T10:12:25.217Z,99372.16
2022-10-23T10:13:29.222Z,99364.09
2022-10-23T10:14:31.533Z,99356.04
2022-10-23T10:15:33.910Z,99355.72
2022-10-23T10:16:36.396Z,99362.38
2022-10-23T10:17:38.801Z,99369.06
2022-10-23T10:18:43.843Z,99373.14
2022-10-23T10:19:47.666Z,99365.61
2022-10-23T10:20:51.550Z,99366.14
2022-10-23T10:21:53.863Z,99360.84
2022-10-23T10:22:56.266Z,99354.64
2022-10-23T10:23:58.756Z,99353.95
2022-10-23T10:25:01.182Z,99360.67
2022-10-23T10:26:06.259Z,99353.70
2022-10-23T10:27:10.090Z,99360.10
2022-10-23T10:28:12.374Z,99360.83
2022-10-23T10:29:16.425Z,99364.20
2022-10-23T10:30:20.287Z,99360.61
2022-10-23T10:31:24.231Z,99362.44
2022-10-23T10:32:26.612Z,99361.66
2022-10-23T10:33:30.039Z,99359.17
2022-10-23T10:34:34.133Z,99369.82
2022-10-23T10:35:36.457Z,99363.66
2022-10-23T10:36:40.525Z,99363.14
2022-10-23T10:37:43.861Z,99364.31
2022-10-23T10:38:45.260Z,99356.41
2022-10-23T10:39:47.730Z,99356.00
2022-10-23T10:40:51.160Z,99348.16
2022-10-23T10:41:53.507Z,99347.27
2022-10-23T10:42:55.976Z,99345.27
2022-10-23T10:43:58.453Z,99342.37
2022-10-23T10:45:00.852Z,99343.11
2022-10-23T10:46:03.299Z,99341.12
2022-10-23T10:47:05.799Z,99350.31
2022-10-23T10:48:08.298Z,99345.58
2022-10-23T10:49:12.421Z,99346.35
2022-10-23T10:50:14.763Z,99339.86
2022-10-23T10:51:17.101Z,99338.80
2022-10-23T10:52:21.181Z,99336.98
2022-10-23T10:53:26.096Z,99332.88
2022-10-23T10:54:28.377Z,99327.35
2022-10-23T10:55:32.456Z,99326.34
2022-10-23T10:56:34.759Z,99311.95
2022-10-23T10:57:37.256Z,99312.70
2022-10-23T10:58:39.676Z,99309.90
2022-10-23T10:59:43.718Z,99304.02
2022-10-23T11:00:46.029Z,99298.59
2022-10-23T11:01:49.721Z,99298.13
2022-10-23T11:02:51.947Z,99296.77
2022-10-23T11:12:22.653Z,99294.09
2022-10-23T11:13:25.147Z,99308.14
2022-10-23T11:14:27.618Z,99309.65
2022-10-23T11:15:30.098Z,99312.77
2022-10-23T11:16:32.529Z,99311.19
2022-10-23T11:17:35.065Z,99308.88
2022-10-23T11:18:38.482Z,99298.11
2022-10-23T11:19:40.888Z,99299.98
2022-10-23T11:20:43.356Z,99308.47
2022-10-23T11:21:45.812Z,99314.91
2022-10-23T11:22:48.233Z,99317.92
2022-10-23T11:23:52.379Z,99315.94
2022-10-23T11:24:57.239Z,99319.98
2022-10-23T11:25:57.094Z,99326.30
2022-10-23T11:26:59.535Z,99324.55
2022-10-23T11:28:05.330Z,99316.56
2022-10-23T11:29:07.505Z,99308.56
2022-10-23T11:30:09.818Z,99303.75
2022-10-23T11:31:12.350Z,99305.53
2022-10-23T11:32:15.718Z,99291.53
2022-10-23T11:33:18.033Z,99291.06
2022-10-23T11:34:20.477Z,99285.81
2022-10-23T11:35:22.976Z,99284.02
2022-10-23T11:36:25.390Z,99285.98
2022-10-23T11:37:27.831Z,99289.59
2022-10-23T11:38:31.292Z,99284.17
2022-10-23T11:39:33.731Z,99275.49
2022-10-23T11:40:36.177Z,99266.58
2022-10-23T11:41:38.685Z,99261.75
2022-10-23T11:42:41.496Z,99258.80
2022-10-23T11:43:43.593Z,99266.45
2022-10-23T11:44:46.292Z,99272.62
2022-10-23T11:45:48.716Z,99277.09
2022-10-23T11:46:51.143Z,99276.23
2022-10-23T11:47:56.141Z,99278.89
2022-10-23T11:49:00.013Z,99280.87
2022-10-23T11:50:02.284Z,99272.16
2022-10-23T11:51:05.712Z,99275.05
2022-10-23T11:52:10.741Z,99268.69
2022-10-23T11:53:16.240Z,99273.08
2022-10-23T11:54:17.795Z,99272.75
2022-10-23T11:55:23.043Z,99271.50
2022-10-23T11:56:26.265Z,99268.10
2022-10-23T11:58:32.604Z,99261.63
2022-10-23T11:59:37.607Z,99259.20
2022-10-23T12:00:41.356Z,99264.00
2022-10-23T12:01:43.969Z,99258.54
2022-10-23T12:02:47.698Z,99253.78
2022-10-23T12:03:49.692Z,99246.58
2022-10-23T12:04:53.142Z,99237.38
2022-10-23T12:05:56.559Z,99236.73
2022-10-23T12:06:59.867Z,99238.83
2022-10-23T12:08:04.814Z,99237.83
2022-10-23T12:09:08.693Z,99235.78
2022-10-23T12:10:12.596Z,99239.76
2022-10-23T12:11:15.912Z,99239.37
2022-10-23T12:12:19.234Z,99238.60
2022-10-23T12:13:21.598Z,99230.64
2022-10-23T12:14:24.108Z,99230.06
2022-10-23T12:15:28.395Z,99227.92
2022-10-23T12:16:31.173Z,99230.83
2022-10-23T12:17:34.516Z,99228.64
2022-10-23T12:18:39.511Z,99227.22
2022-10-23T12:19:41.697Z,99226.53
2022-10-23T12:20:44.145Z,99224.26
2022-10-23T12:21:47.561Z,99228.03
2022-10-23T12:22:49.908Z,99226.95
2022-10-23T12:23:52.400Z,99222.83
2022-10-23T12:24:57.495Z,99219.58
2022-10-23T12:26:01.358Z,99220.16
2022-10-23T12:27:03.714Z,99207.16
2022-10-23T12:28:07.786Z,99203.25
2022-10-23T12:29:11.612Z,99195.23
2022-10-23T12:30:15.033Z,99189.92
2022-10-23T12:31:17.397Z,99189.20
2022-10-23T12:32:19.886Z,99195.77
2022-10-23T12:33:23.901Z,99203.95
2022-10-23T12:34:26.224Z,99195.45
2022-10-23T12:35:31.301Z,99194.11
2022-10-23T12:36:33.617Z,99185.42
2022-10-23T12:37:37.659Z,99189.40
2022-10-23T12:38:42.519Z,99184.25
2022-10-23T12:39:44.735Z,99181.56
2022-10-23T12:40:47.197Z,99183.60
2022-10-23T12:50:21.698Z,99172.13
2022-10-23T12:51:24.041Z,99174.96
2022-10-23T12:52:29.060Z,99183.30
2022-10-23T12:53:32.339Z,99175.25
2022-10-23T12:54:35.667Z,99182.10
2022-10-23T12:55:39.112Z,99178.59
2022-10-23T12:56:41.397Z,99172.13
2022-10-23T12:57:45.290Z,99179.42
2022-10-23T12:58:48.178Z,99180.76
2022-10-23T12:59:51.517Z,99178.42
2022-10-23T13:00:53.871Z,99172.30
2022-10-23T13:01:57.440Z,99176.13
2022-10-23T13:02:59.603Z,99171.79
2022-10-23T13:04:02.111Z,99169.50
2022-10-23T13:05:05.542Z,99175.88
2022-10-23T13:06:08.960Z,99173.91
2022-10-23T13:07:12.918Z,99182.62
2022-10-23T13:08:15.144Z,99171.86
2022-10-23T13:09:17.588Z,99161.30
2022-10-23T13:10:20.040Z,99163.87
2022-10-23T13:11:22.534Z,99162.29
2022-10-23T13:12:26.541Z,99163.59
2022-10-23T13:13:29.924Z,99155.62
2022-10-23T13:14:32.348Z,99157.78
2022-10-23T13:15:34.826Z,99153.59
2022-10-23T13:16:38.848Z,99152.64
2022-10-23T13:17:44.054Z,99149.13
2022-10-23T13:18:47.104Z,99152.34
2022-10-23T13:19:50.478Z,99150.32
2022-10-23T13:20:53.853Z,99150.73
2022-10-23T13:21:58.655Z,99143.09
2022-10-23T13:23:01.114Z,99139.31
2022-10-23T13:24:05.971Z,99130.38
2022-10-23T13:25:09.156Z,99121.69
2022-10-23T13:26:12.502Z,99119.06
2022-10-23T13:27:15.883Z,99116.08
2022-10-23T13:28:19.260Z,99112.61
2022-10-23T13:29:22.648Z,99107.02
2022-10-23T13:30:25.933Z,99107.56
2022-10-23T13:31:28.307Z,99096.34
2022-10-23T13:32:31.766Z,99094.90
2022-10-23T13:33:34.129Z,99092.47
2022-10-23T13:34:38.106Z,99091.52
2022-10-23T13:35:42.015Z,99097.63
2022-10-23T13:36:49.088Z,99098.39
2022-10-23T13:37:51.802Z,99101.51
2022-10-23T13:38:55.046Z,99088.78
2022-10-23T13:39:57.418Z,99093.20
2022-10-23T13:41:01.461Z,99093.69
2022-10-23T13:42:04.792Z,99086.52
2022-10-23T13:43:08.724Z,99084.45
2022-10-23T13:44:12.774Z,99078.52
2022-10-23T13:45:17.647Z,99080.75
2022-10-23T13:46:21.607Z,99077.52
2022-10-23T13:47:24.815Z,99074.76
2022-10-23T13:48:27.152Z,99075.05
2022-10-23T13:49:29.594Z,99076.99
2022-10-23T13:50:34.681Z,99073.95
2022-10-23T13:51:38.870Z,99075.48
2022-10-23T13:52:40.247Z,99080.17
2022-10-23T13:53:42.650Z,99079.42
2022-10-23T13:54:45.256Z,99086.10
2022-10-23T13:55:50.097Z,99086.66
2022-10-23T13:56:54.205Z,99094.94
2022-10-23T13:57:57.417Z,99089.73
2022-10-23T13:58:59.764Z,99089.41
2022-10-23T14:00:02.152Z,99088.84
2022-10-23T14:01:05.626Z,99088.50
2022-10-23T14:02:08.990Z,99096.85
2022-10-23T14:03:11.296Z,99099.84
2022-10-23T14:04:16.403Z,99086.74
2022-10-23T14:05:21.205Z,99084.64
2022-10-23T14:06:23.434Z,99083.89
2022-10-23T14:07:25.705Z,99074.35
2022-10-23T14:08:29.086Z,99075.48
2022-10-23T14:09:31.415Z,99069.23
2022-10-23T14:10:34.915Z,99075.05
2022-10-23T14:11:37.117Z,99066.31
2022-10-23T14:12:42.406Z,99073.47
2022-10-23T14:13:44.444Z,99067.28
2022-10-23T14:14:47.014Z,99070.50
2022-10-23T14:15:49.390Z,99068.06
2022-10-23T14:16:51.847Z,99068.14
2022-10-23T14:17:58.040Z,99059.98
2022-10-23T14:18:56.637Z,99056.45
2022-10-23T14:19:59.134Z,99054.63
2022-10-23T14:21:02.536Z,99050.02
2022-10-23T14:22:05.845Z,99046.86
2022-10-23T14:23:08.642Z,99043.45
2022-10-23T14:24:13.391Z,99039.91
2022-10-23T14:25:18.395Z,99047.02
2022-10-23T14:26:20.622Z,99044.88
2022-10-23T14:27:23.106Z,99046.39
2022-10-23T14:28:27.094Z,99051.66
2022-10-23T14:29:32.078Z,99055.98
2022-10-23T14:30:35.316Z,99060.50
2022-10-23T14:31:39.250Z,99059.15
2022-10-23T14:32:43.610Z,99060.67
2022-10-23T14:42:16.287Z,99072.05
2022-10-23T14:43:18.627Z,99059.22
2022-10-23T14:44:22.775Z,99059.27
2022-10-23T14:45:26.674Z,99047.23
2022-10-23T14:46:29.047Z,99043.77
2022-10-23T14:47:31.482Z,99040.89
2022-10-23T14:48:33.942Z,99041.54
2022-10-23T14:49:38.108Z,99031.97
2022-10-23T14:50:40.313Z,99026.65
2022-10-23T14:51:44.382Z,99023.03
2022-10-23T14:52:46.528Z,99023.27
2022-10-23T14:53:50.355Z,99028.84
2022-10-23T14:54:53.462Z,99034.66
2022-10-23T14:55:55.791Z,99040.77
2022-10-23T14:57:00.817Z,99039.54
2022-10-23T14:58:04.077Z,99042.98
2022-10-23T14:59:06.403Z,99037.95
2022-10-23T15:00:09.837Z,99041.19
2022-10-23T15:01:13.273Z,99033.02
2022-10-23T15:02:18.190Z,99030.45
2022-10-23T15:03:20.366Z,99027.98
2022-10-23T15:04:22.825Z,99021.95
2022-10-23T15:05:25.270Z,99020.91
2022-10-23T15:06:29.317Z,99017.56
2022-10-23T15:07:33.186Z,99017.56
2022-10-23T15:08:35.631Z,99015.50
2022-10-23T15:09:39.586Z,99018.00
2022-10-23T15:10:44.470Z,99024.59
2022-10-23T15:11:46.765Z,99017.47
2022-10-23T15:12:50.897Z,99015.50
2022-10-23T15:13:55.795Z,99009.12
2022-10-23T15:14:58.042Z,99012.91
2022-10-23T15:16:00.498Z,99015.64
2022-10-23T15:17:02.926Z,99020.80
2022-10-23T15:18:06.419Z,99019.08
2022-10-23T15:19:10.865Z,99024.34
2022-10-23T15:20:14.697Z,99019.77
2022-10-23T15:21:17.958Z,99022.33
2022-10-23T15:22:22.934Z,99018.94
2022-10-23T15:23:25.224Z,99015.91
2022-10-23T15:24:27.653Z,99009.03
2022-10-23T15:25:30.105Z,99009.13
2022-10-23T15:26:33.592Z,99009.97
2022-10-23T15:27:35.926Z,99003.67
2022-10-23T15:28:39.360Z,99007.48
2022-10-23T15:38:12.426Z,98998.47
2022-10-23T15:39:14.753Z,98993.13
2022-10-23T15:40:18.807Z,98989.94
2022-10-23T15:41:22.218Z,98981.59
2022-10-23T15:42:24.584Z,98979.44
2022-10-23T15:43:28.025Z,98976.66
2022-10-23T15:44:31.411Z,98973.70
2022-10-23T15:45:34.819Z,98974.14
2022-10-23T15:46:38.131Z,98971.58
2022-10-23T15:47:41.814Z,98972.59
2022-10-23T15:48:46.471Z,98974.72
2022-10-23T15:49:49.696Z,98973.51
2022-10-23T15:50:53.087Z,98966.73
2022-10-23T15:51:55.488Z,98970.76
2022-10-23T16:01:26.689Z,98969.83
2022-10-23T16:02:29.245Z,98970.13
2022-10-23T16:03:31.527Z,98966.83
2022-10-23T16:04:33.983Z,98956.65
2022-10-23T16:05:37.482Z,98950.63
2022-10-23T16:06:41.414Z,98947.50
2022-10-23T16:07:43.868Z,98954.97
2022-10-23T16:08:46.381Z,98951.30
2022-10-23T16:09:48.705Z,98956.81
2022-10-23T16:19:20.071Z,98945.88
2022-10-23T16:28:54.215Z,98955.88
2022-10-23T16:38:28.092Z,98942.06
2022-10-23T16:48:03.358Z,98942.94
2022-10-23T16:57:36.952Z,98927.93
2022-10-23T17:07:09.584Z,98925.01
2022-10-23T17:16:45.430Z,98908.00
2022-10-23T17:26:17.879Z,99020.80
2022-10-23T17:35:52.537Z,99084.77
2022-10-23T17:45:26.797Z,99076.75
2022-10-23T17:55:01.274Z,99089.02
2022-10-23T18:04:35.375Z,99091.28
2022-10-23T18:14:09.922Z,99059.84
2022-10-23T18:23:44.002Z,99010.06
2022-10-23T18:33:17.997Z,99028.42
2022-10-23T18:42:53.636Z,99021.00
2022-10-23T18:52:27.457Z,99031.91
2022-10-23T19:01:59.561Z,99045.68
2022-10-23T19:11:34.783Z,99047.56
2022-10-23T19:21:07.110Z,99053.75
2022-10-23T19:30:41.631Z,99049.53
2022-10-23T19:40:16.086Z,99033.18
2022-10-23T19:49:50.648Z,99054.10
2022-10-23T19:59:25.170Z,99053.57
2022-10-23T20:08:58.671Z,99042.77
2022-10-23T20:18:34.333Z,99063.31
2022-10-23T20:28:09.189Z,99090.23
2022-10-23T20:37:41.022Z,99085.33
2022-10-23T20:47:14.493Z,99096.09
2022-10-23T20:56:48.764Z,99100.95
2022-10-23T21:06:22.984Z,99100.66
2022-10-23T21:15:56.828Z,99116.36
2022-10-23T21:25:31.085Z,99114.00
2022-10-23T21:35:07.325Z,99136.86
2022-10-23T21:44:39.708Z,99140.72
2022-10-23T21:54:13.586Z,99130.44
2022-10-23T22:03:49.450Z,99123.88
2022-10-23T22:13:23.592Z,99110.56
2022-10-23T22:22:56.358Z,99105.53
2022-10-23T22:32:30.519Z,99123.36
2022-10-23T22:42:05.748Z,99128.69
2022-10-23T22:51:38.266Z,99129.02
2022-10-23T23:01:12.371Z,99128.40
2022-10-23T23:10:46.325Z,99124.16
2022-10-23T23:20:20.431Z,99114.94
2022-10-23T23:29:56.091Z,99124.63
2022-10-23T23:39:28.493Z,99124.30
2022-10-23T23:49:02.534Z,99123.48
2022-10-23T23:58:38.050Z,99129.14
